sensor_id;sensor_type;location;lat;lon;timestamp;P1;durP1;ratioP1;P2;durP2;ratioP2
19812;SDS011;10066;48.108;11.448;2023-09-30T00:01:02;22.90;;;10.47;;
19812;SDS011;10066;48.108;11.448;2023-09-30T00:03:34;23.03;;;10.13;;
19812;SDS011;10066;48.108;11.448;2023-09-30T00:06:01;25.23;;;10.13;;
19812;SDS011;10066;48.108;11.448;2023-09-30T00:08:28;21.63;;;9.57;;
19812;SDS011;10066;48.108;11.448;2023-09-30T00:10:55;21.87;;;9.57;;
19812;SDS011;10066;48.108;11.448;2023-09-30T00:13:22;21.87;;;10.13;;
19812;SDS011;10066;48.108;11.448;2023-09-30T00:15:51;25.57;;;11.13;;
19812;SDS011;10066;48.108;11.448;2023-09-30T00:18:18;22.27;;;9.90;;
19812;SDS011;10066;48.108;11.448;2023-09-30T00:20:45;24.80;;;9.67;;
19812;SDS011;10066;48.108;11.448;2023-09-30T00:23:13;23.50;;;10.27;;
19812;SDS011;10066;48.108;11.448;2023-09-30T00:25:40;20.07;;;9.90;;
19812;SDS011;10066;48.108;11.448;2023-09-30T00:28:07;20.63;;;9.50;;
19812;SDS011;10066;48.108;11.448;2023-09-30T00:30:34;22.13;;;10.47;;
19812;SDS011;10066;48.108;11.448;2023-09-30T00:33:02;23.33;;;10.27;;
19812;SDS011;10066;48.108;11.448;2023-09-30T00:35:31;24.73;;;10.40;;
19812;SDS011;10066;48.108;11.448;2023-09-30T00:37:58;23.23;;;10.30;;
19812;SDS011;10066;48.108;11.448;2023-09-30T00:40:25;18.43;;;8.87;;
19812;SDS011;10066;48.108;11.448;2023-09-30T00:42:52;24.17;;;10.10;;
19812;SDS011;10066;48.108;11.448;2023-09-30T00:45:19;20.57;;;10.27;;
19812;SDS011;10066;48.108;11.448;2023-09-30T00:47:46;25.50;;;10.53;;
19812;SDS011;10066;48.108;11.448;2023-09-30T00:50:15;21.80;;;9.93;;
19812;SDS011;10066;48.108;11.448;2023-09-30T00:52:42;23.43;;;10.30;;
19812;SDS011;10066;48.108;11.448;2023-09-30T00:55:11;24.63;;;10.77;;
19812;SDS011;10066;48.108;11.448;2023-09-30T00:57:39;23.17;;;10.43;;
19812;SDS011;10066;48.108;11.448;2023-09-30T01:00:06;22.83;;;10.70;;
19812;SDS011;10066;48.108;11.448;2023-09-30T01:02:37;22.47;;;10.40;;
19812;SDS011;10066;48.108;11.448;2023-09-30T01:05:04;26.13;;;10.57;;
19812;SDS011;10066;48.108;11.448;2023-09-30T01:07:34;24.67;;;10.30;;
19812;SDS011;10066;48.108;11.448;2023-09-30T01:10:02;26.50;;;10.97;;
19812;SDS011;10066;48.108;11.448;2023-09-30T01:12:29;22.80;;;10.17;;
19812;SDS011;10066;48.108;11.448;2023-09-30T01:14:57;24.33;;;10.70;;
19812;SDS011;10066;48.108;11.448;2023-09-30T01:17:25;22.57;;;10.47;;
19812;SDS011;10066;48.108;11.448;2023-09-30T01:19:54;26.17;;;11.23;;
19812;SDS011;10066;48.108;11.448;2023-09-30T01:22:24;25.23;;;10.23;;
19812;SDS011;10066;48.108;11.448;2023-09-30T01:24:53;23.17;;;10.33;;
19812;SDS011;10066;48.108;11.448;2023-09-30T01:27:20;25.60;;;10.90;;
19812;SDS011;10066;48.108;11.448;2023-09-30T01:29:47;24.60;;;10.87;;
19812;SDS011;10066;48.108;11.448;2023-09-30T01:32:14;22.87;;;10.47;;
19812;SDS011;10066;48.108;11.448;2023-09-30T01:34:41;24.77;;;11.40;;
19812;SDS011;10066;48.108;11.448;2023-09-30T01:37:09;27.57;;;11.10;;
19812;SDS011;10066;48.108;11.448;2023-09-30T01:39:37;24.33;;;11.53;;
19812;SDS011;10066;48.108;11.448;2023-09-30T01:42:04;25.10;;;11.47;;
19812;SDS011;10066;48.108;11.448;2023-09-30T01:44:31;26.97;;;12.00;;
19812;SDS011;10066;48.108;11.448;2023-09-30T01:46:59;26.43;;;11.67;;
19812;SDS011;10066;48.108;11.448;2023-09-30T01:49:26;23.73;;;11.23;;
19812;SDS011;10066;48.108;11.448;2023-09-30T01:51:53;24.23;;;11.63;;
19812;SDS011;10066;48.108;11.448;2023-09-30T01:54:21;24.50;;;10.83;;
19812;SDS011;10066;48.108;11.448;2023-09-30T01:56:50;25.27;;;11.13;;
19812;SDS011;10066;48.108;11.448;2023-09-30T01:59:19;25.33;;;11.20;;
19812;SDS011;10066;48.108;11.448;2023-09-30T02:01:46;26.77;;;11.27;;
19812;SDS011;10066;48.108;11.448;2023-09-30T02:04:14;26.90;;;11.80;;
19812;SDS011;10066;48.108;11.448;2023-09-30T02:06:41;26.63;;;11.80;;
19812;SDS011;10066;48.108;11.448;2023-09-30T02:09:08;25.60;;;12.07;;
19812;SDS011;10066;48.108;11.448;2023-09-30T02:11:35;26.27;;;12.17;;
19812;SDS011;10066;48.108;11.448;2023-09-30T02:14:04;27.20;;;12.03;;
19812;SDS011;10066;48.108;11.448;2023-09-30T02:16:32;28.20;;;11.83;;
19812;SDS011;10066;48.108;11.448;2023-09-30T02:19:02;23.67;;;10.87;;
19812;SDS011;10066;48.108;11.448;2023-09-30T02:21:29;25.90;;;11.57;;
19812;SDS011;10066;48.108;11.448;2023-09-30T02:23:56;27.30;;;11.47;;
19812;SDS011;10066;48.108;11.448;2023-09-30T02:26:23;27.97;;;12.53;;
19812;SDS011;10066;48.108;11.448;2023-09-30T02:28:52;26.63;;;11.73;;
19812;SDS011;10066;48.108;11.448;2023-09-30T02:31:20;23.70;;;11.13;;
19812;SDS011;10066;48.108;11.448;2023-09-30T02:33:49;27.90;;;11.77;;
19812;SDS011;10066;48.108;11.448;2023-09-30T02:36:16;25.70;;;11.07;;
19812;SDS011;10066;48.108;11.448;2023-09-30T02:38:43;25.57;;;12.13;;
19812;SDS011;10066;48.108;11.448;2023-09-30T02:41:11;29.17;;;12.07;;
19812;SDS011;10066;48.108;11.448;2023-09-30T02:43:38;28.10;;;11.90;;
19812;SDS011;10066;48.108;11.448;2023-09-30T02:46:05;26.30;;;12.07;;
19812;SDS011;10066;48.108;11.448;2023-09-30T02:48:34;27.40;;;11.43;;
19812;SDS011;10066;48.108;11.448;2023-09-30T02:51:01;27.50;;;12.47;;
19812;SDS011;10066;48.108;11.448;2023-09-30T02:53:29;26.63;;;11.70;;
19812;SDS011;10066;48.108;11.448;2023-09-30T02:55:56;29.30;;;12.60;;
19812;SDS011;10066;48.108;11.448;2023-09-30T02:58:25;26.47;;;12.20;;
19812;SDS011;10066;48.108;11.448;2023-09-30T03:00:52;27.97;;;11.87;;
19812;SDS011;10066;48.108;11.448;2023-09-30T03:03:19;26.87;;;12.10;;
19812;SDS011;10066;48.108;11.448;2023-09-30T03:05:48;27.37;;;12.13;;
19812;SDS011;10066;48.108;11.448;2023-09-30T03:08:15;26.10;;;12.93;;
19812;SDS011;10066;48.108;11.448;2023-09-30T03:10:42;27.00;;;12.17;;
19812;SDS011;10066;48.108;11.448;2023-09-30T03:13:09;24.80;;;12.40;;
19812;SDS011;10066;48.108;11.448;2023-09-30T03:15:36;29.20;;;12.40;;
19812;SDS011;10066;48.108;11.448;2023-09-30T03:18:04;27.27;;;12.13;;
19812;SDS011;10066;48.108;11.448;2023-09-30T03:20:31;26.60;;;12.53;;
19812;SDS011;10066;48.108;11.448;2023-09-30T03:22:59;25.60;;;11.77;;
19812;SDS011;10066;48.108;11.448;2023-09-30T03:25:29;24.90;;;11.87;;
19812;SDS011;10066;48.108;11.448;2023-09-30T03:27:57;27.87;;;12.57;;
19812;SDS011;10066;48.108;11.448;2023-09-30T03:30:24;23.00;;;11.47;;
19812;SDS011;10066;48.108;11.448;2023-09-30T03:32:51;30.10;;;11.93;;
19812;SDS011;10066;48.108;11.448;2023-09-30T03:35:18;26.20;;;12.00;;
19812;SDS011;10066;48.108;11.448;2023-09-30T03:37:46;26.37;;;11.43;;
19812;SDS011;10066;48.108;11.448;2023-09-30T03:40:15;22.23;;;10.30;;
19812;SDS011;10066;48.108;11.448;2023-09-30T03:42:45;28.03;;;11.43;;
19812;SDS011;10066;48.108;11.448;2023-09-30T03:45:14;21.63;;;10.33;;
19812;SDS011;10066;48.108;11.448;2023-09-30T03:47:42;24.87;;;11.20;;
19812;SDS011;10066;48.108;11.448;2023-09-30T03:50:10;23.93;;;10.87;;
19812;SDS011;10066;48.108;11.448;2023-09-30T03:52:39;26.13;;;11.13;;
19812;SDS011;10066;48.108;11.448;2023-09-30T03:55:09;25.03;;;10.97;;
19812;SDS011;10066;48.108;11.448;2023-09-30T03:57:38;25.00;;;10.73;;
19812;SDS011;10066;48.108;11.448;2023-09-30T04:00:06;24.93;;;11.27;;
19812;SDS011;10066;48.108;11.448;2023-09-30T04:02:36;26.03;;;11.43;;
19812;SDS011;10066;48.108;11.448;2023-09-30T04:05:03;27.43;;;11.10;;
19812;SDS011;10066;48.108;11.448;2023-09-30T04:07:31;23.87;;;10.63;;
19812;SDS011;10066;48.108;11.448;2023-09-30T04:09:57;26.97;;;10.97;;
19812;SDS011;10066;48.108;11.448;2023-09-30T04:12:26;26.63;;;11.77;;
19812;SDS011;10066;48.108;11.448;2023-09-30T04:14:55;25.10;;;11.43;;
19812;SDS011;10066;48.108;11.448;2023-09-30T04:17:23;25.83;;;10.83;;
19812;SDS011;10066;48.108;11.448;2023-09-30T04:19:51;23.30;;;10.27;;
19812;SDS011;10066;48.108;11.448;2023-09-30T04:22:18;21.30;;;9.93;;
19812;SDS011;10066;48.108;11.448;2023-09-30T04:24:46;25.30;;;11.47;;
19812;SDS011;10066;48.108;11.448;2023-09-30T04:27:15;24.10;;;11.40;;
19812;SDS011;10066;48.108;11.448;2023-09-30T04:29:42;26.93;;;11.80;;
19812;SDS011;10066;48.108;11.448;2023-09-30T04:32:10;24.83;;;11.40;;
19812;SDS011;10066;48.108;11.448;2023-09-30T04:34:37;26.47;;;11.10;;
19812;SDS011;10066;48.108;11.448;2023-09-30T04:37:04;24.77;;;10.73;;
19812;SDS011;10066;48.108;11.448;2023-09-30T04:39:34;23.70;;;10.87;;
19812;SDS011;10066;48.108;11.448;2023-09-30T04:42:01;25.63;;;11.33;;
19812;SDS011;10066;48.108;11.448;2023-09-30T04:44:29;23.00;;;10.77;;
19812;SDS011;10066;48.108;11.448;2023-09-30T04:46:56;26.90;;;10.37;;
19812;SDS011;10066;48.108;11.448;2023-09-30T04:49:26;25.37;;;11.40;;
19812;SDS011;10066;48.108;11.448;2023-09-30T04:51:52;22.83;;;10.43;;
19812;SDS011;10066;48.108;11.448;2023-09-30T04:54:20;21.97;;;10.33;;
19812;SDS011;10066;48.108;11.448;2023-09-30T04:56:47;21.63;;;10.40;;
19812;SDS011;10066;48.108;11.448;2023-09-30T04:59:16;25.17;;;11.43;;
19812;SDS011;10066;48.108;11.448;2023-09-30T05:01:43;27.03;;;10.60;;
19812;SDS011;10066;48.108;11.448;2023-09-30T05:04:10;23.03;;;10.03;;
19812;SDS011;10066;48.108;11.448;2023-09-30T05:06:38;22.93;;;10.47;;
19812;SDS011;10066;48.108;11.448;2023-09-30T05:09:05;21.87;;;10.37;;
19812;SDS011;10066;48.108;11.448;2023-09-30T05:11:33;21.83;;;9.97;;
19812;SDS011;10066;48.108;11.448;2023-09-30T05:14:01;23.30;;;10.33;;
19812;SDS011;10066;48.108;11.448;2023-09-30T05:16:30;24.30;;;10.60;;
19812;SDS011;10066;48.108;11.448;2023-09-30T05:18:57;21.53;;;10.03;;
19812;SDS011;10066;48.108;11.448;2023-09-30T05:21:24;25.00;;;10.50;;
19812;SDS011;10066;48.108;11.448;2023-09-30T05:23:53;26.30;;;10.27;;
19812;SDS011;10066;48.108;11.448;2023-09-30T05:26:19;26.40;;;10.67;;
19812;SDS011;10066;48.108;11.448;2023-09-30T05:28:46;22.90;;;10.13;;
19812;SDS011;10066;48.108;11.448;2023-09-30T05:31:13;22.00;;;10.10;;
19812;SDS011;10066;48.108;11.448;2023-09-30T05:33:40;23.40;;;10.45;;
19812;SDS011;10066;48.108;11.448;2023-09-30T05:36:07;19.50;;;9.35;;
19812;SDS011;10066;48.108;11.448;2023-09-30T05:38:34;23.07;;;10.60;;
19812;SDS011;10066;48.108;11.448;2023-09-30T05:41:02;22.10;;;9.50;;
19812;SDS011;10066;48.108;11.448;2023-09-30T05:43:31;23.67;;;10.07;;
19812;SDS011;10066;48.108;11.448;2023-09-30T05:45:58;21.80;;;9.73;;
19812;SDS011;10066;48.108;11.448;2023-09-30T05:48:25;23.63;;;10.63;;
19812;SDS011;10066;48.108;11.448;2023-09-30T05:50:52;23.27;;;9.83;;
19812;SDS011;10066;48.108;11.448;2023-09-30T05:53:19;24.47;;;10.60;;
19812;SDS011;10066;48.108;11.448;2023-09-30T05:55:46;23.97;;;9.93;;
19812;SDS011;10066;48.108;11.448;2023-09-30T05:58:15;21.80;;;10.43;;
19812;SDS011;10066;48.108;11.448;2023-09-30T06:00:42;23.00;;;10.13;;
19812;SDS011;10066;48.108;11.448;2023-09-30T06:03:09;20.83;;;9.70;;
19812;SDS011;10066;48.108;11.448;2023-09-30T06:05:38;23.67;;;10.80;;
19812;SDS011;10066;48.108;11.448;2023-09-30T06:08:07;22.60;;;10.13;;
19812;SDS011;10066;48.108;11.448;2023-09-30T06:10:35;22.70;;;9.27;;
19812;SDS011;10066;48.108;11.448;2023-09-30T06:13:07;20.27;;;9.53;;
19812;SDS011;10066;48.108;11.448;2023-09-30T06:15:38;21.53;;;9.87;;
19812;SDS011;10066;48.108;11.448;2023-09-30T06:18:06;20.70;;;9.83;;
19812;SDS011;10066;48.108;11.448;2023-09-30T06:20:34;23.93;;;10.03;;
19812;SDS011;10066;48.108;11.448;2023-09-30T06:23:02;20.77;;;9.90;;
19812;SDS011;10066;48.108;11.448;2023-09-30T06:25:29;21.40;;;9.53;;
19812;SDS011;10066;48.108;11.448;2023-09-30T06:27:58;22.83;;;9.43;;
19812;SDS011;10066;48.108;11.448;2023-09-30T06:30:25;23.37;;;10.27;;
19812;SDS011;10066;48.108;11.448;2023-09-30T06:32:56;22.50;;;9.53;;
19812;SDS011;10066;48.108;11.448;2023-09-30T06:35:24;21.53;;;9.80;;
19812;SDS011;10066;48.108;11.448;2023-09-30T06:37:52;20.30;;;9.23;;
19812;SDS011;10066;48.108;11.448;2023-09-30T06:40:19;24.03;;;9.97;;
19812;SDS011;10066;48.108;11.448;2023-09-30T06:42:46;17.77;;;8.23;;
19812;SDS011;10066;48.108;11.448;2023-09-30T06:45:13;17.67;;;8.10;;
19812;SDS011;10066;48.108;11.448;2023-09-30T06:47:40;15.83;;;7.40;;
19812;SDS011;10066;48.108;11.448;2023-09-30T06:50:10;16.13;;;7.17;;
19812;SDS011;10066;48.108;11.448;2023-09-30T06:52:41;16.00;;;5.57;;
19812;SDS011;10066;48.108;11.448;2023-09-30T06:55:10;13.40;;;5.43;;
19812;SDS011;10066;48.108;11.448;2023-09-30T06:57:41;12.87;;;5.80;;
19812;SDS011;10066;48.108;11.448;2023-09-30T07:00:08;13.53;;;5.90;;
19812;SDS011;10066;48.108;11.448;2023-09-30T07:02:37;11.63;;;5.40;;
19812;SDS011;10066;48.108;11.448;2023-09-30T07:05:05;11.30;;;5.33;;
19812;SDS011;10066;48.108;11.448;2023-09-30T07:07:34;12.20;;;5.47;;
19812;SDS011;10066;48.108;11.448;2023-09-30T07:10:01;14.13;;;5.23;;
19812;SDS011;10066;48.108;11.448;2023-09-30T07:12:29;9.53;;;4.67;;
19812;SDS011;10066;48.108;11.448;2023-09-30T07:14:57;11.30;;;4.83;;
19812;SDS011;10066;48.108;11.448;2023-09-30T07:17:24;10.27;;;3.97;;
19812;SDS011;10066;48.108;11.448;2023-09-30T07:19:51;9.83;;;4.10;;
19812;SDS011;10066;48.108;11.448;2023-09-30T07:22:18;9.37;;;4.70;;
19812;SDS011;10066;48.108;11.448;2023-09-30T07:24:47;10.03;;;4.63;;
19812;SDS011;10066;48.108;11.448;2023-09-30T07:27:14;9.63;;;4.30;;
19812;SDS011;10066;48.108;11.448;2023-09-30T07:29:41;8.40;;;3.73;;
19812;SDS011;10066;48.108;11.448;2023-09-30T07:32:08;11.17;;;4.90;;
19812;SDS011;10066;48.108;11.448;2023-09-30T07:34:35;8.87;;;4.23;;
19812;SDS011;10066;48.108;11.448;2023-09-30T07:37:02;9.73;;;5.00;;
19812;SDS011;10066;48.108;11.448;2023-09-30T07:39:29;10.83;;;4.30;;
19812;SDS011;10066;48.108;11.448;2023-09-30T07:41:58;11.27;;;4.77;;
19812;SDS011;10066;48.108;11.448;2023-09-30T07:44:25;10.60;;;4.90;;
19812;SDS011;10066;48.108;11.448;2023-09-30T07:46:52;13.00;;;4.77;;
19812;SDS011;10066;48.108;11.448;2023-09-30T07:49:19;8.87;;;4.23;;
19812;SDS011;10066;48.108;11.448;2023-09-30T07:51:46;12.57;;;4.70;;
19812;SDS011;10066;48.108;11.448;2023-09-30T07:54:13;10.80;;;4.80;;
19812;SDS011;10066;48.108;11.448;2023-09-30T07:56:42;11.37;;;4.37;;
19812;SDS011;10066;48.108;11.448;2023-09-30T07:59:10;10.50;;;4.70;;
19812;SDS011;10066;48.108;11.448;2023-09-30T08:01:38;11.10;;;5.13;;
19812;SDS011;10066;48.108;11.448;2023-09-30T08:04:05;11.37;;;4.97;;
19812;SDS011;10066;48.108;11.448;2023-09-30T08:06:32;13.17;;;4.93;;
19812;SDS011;10066;48.108;11.448;2023-09-30T08:08:59;13.80;;;5.60;;
19812;SDS011;10066;48.108;11.448;2023-09-30T08:11:28;9.17;;;4.63;;
19812;SDS011;10066;48.108;11.448;2023-09-30T08:13:57;12.00;;;5.30;;
19812;SDS011;10066;48.108;11.448;2023-09-30T08:16:32;11.60;;;5.27;;
19812;SDS011;10066;48.108;11.448;2023-09-30T08:18:59;11.73;;;5.50;;
19812;SDS011;10066;48.108;11.448;2023-09-30T08:21:26;12.67;;;5.37;;
19812;SDS011;10066;48.108;11.448;2023-09-30T08:23:53;13.90;;;5.80;;
19812;SDS011;10066;48.108;11.448;2023-09-30T08:26:20;15.03;;;6.60;;
19812;SDS011;10066;48.108;11.448;2023-09-30T08:28:48;10.37;;;5.37;;
19812;SDS011;10066;48.108;11.448;2023-09-30T08:31:15;12.70;;;6.00;;
19812;SDS011;10066;48.108;11.448;2023-09-30T08:33:44;13.40;;;6.40;;
19812;SDS011;10066;48.108;11.448;2023-09-30T08:36:11;11.23;;;5.47;;
19812;SDS011;10066;48.108;11.448;2023-09-30T08:38:39;11.70;;;5.70;;
19812;SDS011;10066;48.108;11.448;2023-09-30T08:41:06;12.03;;;5.83;;
19812;SDS011;10066;48.108;11.448;2023-09-30T08:43:34;11.40;;;5.63;;
19812;SDS011;10066;48.108;11.448;2023-09-30T08:46:04;12.97;;;5.73;;
19812;SDS011;10066;48.108;11.448;2023-09-30T08:48:31;15.47;;;6.20;;
19812;SDS011;10066;48.108;11.448;2023-09-30T08:51:00;13.97;;;6.30;;
19812;SDS011;10066;48.108;11.448;2023-09-30T08:53:28;21.73;;;5.90;;
19812;SDS011;10066;48.108;11.448;2023-09-30T08:55:57;13.83;;;6.40;;
19812;SDS011;10066;48.108;11.448;2023-09-30T08:58:26;14.20;;;6.00;;
19812;SDS011;10066;48.108;11.448;2023-09-30T09:00:54;12.63;;;5.37;;
19812;SDS011;10066;48.108;11.448;2023-09-30T09:03:22;13.93;;;6.33;;
19812;SDS011;10066;48.108;11.448;2023-09-30T09:05:53;13.93;;;6.20;;
19812;SDS011;10066;48.108;11.448;2023-09-30T09:08:23;15.10;;;6.37;;
19812;SDS011;10066;48.108;11.448;2023-09-30T09:10:55;13.17;;;5.37;;
19812;SDS011;10066;48.108;11.448;2023-09-30T09:13:23;14.70;;;6.10;;
19812;SDS011;10066;48.108;11.448;2023-09-30T09:16:05;15.13;;;6.93;;
19812;SDS011;10066;48.108;11.448;2023-09-30T09:18:33;15.47;;;6.33;;
19812;SDS011;10066;48.108;11.448;2023-09-30T09:21:07;14.80;;;6.40;;
19812;SDS011;10066;48.108;11.448;2023-09-30T09:23:40;14.57;;;6.73;;
19812;SDS011;10066;48.108;11.448;2023-09-30T09:26:08;14.83;;;6.73;;
19812;SDS011;10066;48.108;11.448;2023-09-30T09:28:36;15.07;;;6.13;;
19812;SDS011;10066;48.108;11.448;2023-09-30T09:31:19;13.97;;;7.17;;
19812;SDS011;10066;48.108;11.448;2023-09-30T09:33:47;13.73;;;6.83;;
19812;SDS011;10066;48.108;11.448;2023-09-30T09:36:14;14.43;;;7.10;;
19812;SDS011;10066;48.108;11.448;2023-09-30T09:38:46;12.57;;;6.10;;
19812;SDS011;10066;48.108;11.448;2023-09-30T09:41:15;13.33;;;6.47;;
19812;SDS011;10066;48.108;11.448;2023-09-30T09:43:43;14.10;;;6.33;;
19812;SDS011;10066;48.108;11.448;2023-09-30T09:46:10;14.60;;;6.40;;
19812;SDS011;10066;48.108;11.448;2023-09-30T09:48:39;13.43;;;6.40;;
19812;SDS011;10066;48.108;11.448;2023-09-30T09:51:06;15.67;;;6.93;;
19812;SDS011;10066;48.108;11.448;2023-09-30T09:53:37;13.63;;;6.23;;
19812;SDS011;10066;48.108;11.448;2023-09-30T09:56:08;15.70;;;6.50;;
19812;SDS011;10066;48.108;11.448;2023-09-30T09:58:36;14.33;;;6.70;;
19812;SDS011;10066;48.108;11.448;2023-09-30T10:01:06;13.57;;;6.20;;
19812;SDS011;10066;48.108;11.448;2023-09-30T10:03:35;16.13;;;6.63;;
19812;SDS011;10066;48.108;11.448;2023-09-30T10:06:03;14.87;;;6.37;;
19812;SDS011;10066;48.108;11.448;2023-09-30T10:08:31;15.57;;;6.60;;
19812;SDS011;10066;48.108;11.448;2023-09-30T10:11:01;13.63;;;6.00;;
19812;SDS011;10066;48.108;11.448;2023-09-30T10:19:16;12.50;;;5.57;;
19812;SDS011;10066;48.108;11.448;2023-09-30T10:24:48;11.60;;;5.53;;
19812;SDS011;10066;48.108;11.448;2023-09-30T10:27:32;10.60;;;5.30;;
19812;SDS011;10066;48.108;11.448;2023-09-30T10:30:10;11.47;;;5.53;;
19812;SDS011;10066;48.108;11.448;2023-09-30T10:35:42;9.03;;;4.53;;
19812;SDS011;10066;48.108;11.448;2023-09-30T10:41:07;9.67;;;4.97;;
19812;SDS011;10066;48.108;11.448;2023-09-30T10:43:37;12.00;;;5.13;;
19812;SDS011;10066;48.108;11.448;2023-09-30T10:49:16;10.13;;;4.60;;
19812;SDS011;10066;48.108;11.448;2023-09-30T10:51:42;10.47;;;5.23;;
19812;SDS011;10066;48.108;11.448;2023-09-30T10:54:13;12.43;;;5.53;;
19812;SDS011;10066;48.108;11.448;2023-09-30T10:56:40;12.50;;;5.70;;
19812;SDS011;10066;48.108;11.448;2023-09-30T10:59:07;10.30;;;5.07;;
19812;SDS011;10066;48.108;11.448;2023-09-30T11:01:36;11.60;;;5.47;;
19812;SDS011;10066;48.108;11.448;2023-09-30T11:04:03;11.80;;;5.40;;
19812;SDS011;10066;48.108;11.448;2023-09-30T11:06:32;12.37;;;6.13;;
19812;SDS011;10066;48.108;11.448;2023-09-30T11:08:59;9.80;;;5.03;;
19812;SDS011;10066;48.108;11.448;2023-09-30T11:11:34;9.73;;;4.90;;
19812;SDS011;10066;48.108;11.448;2023-09-30T11:14:02;9.30;;;4.73;;
19812;SDS011;10066;48.108;11.448;2023-09-30T11:16:41;8.30;;;4.80;;
19812;SDS011;10066;48.108;11.448;2023-09-30T11:19:08;10.53;;;4.67;;
19812;SDS011;10066;48.108;11.448;2023-09-30T11:21:35;11.87;;;5.17;;
19812;SDS011;10066;48.108;11.448;2023-09-30T11:24:02;10.97;;;5.43;;
19812;SDS011;10066;48.108;11.448;2023-09-30T11:26:31;11.47;;;5.97;;
19812;SDS011;10066;48.108;11.448;2023-09-30T11:29:04;11.00;;;5.50;;
19812;SDS011;10066;48.108;11.448;2023-09-30T11:31:32;13.70;;;6.17;;
19812;SDS011;10066;48.108;11.448;2023-09-30T11:34:01;13.47;;;5.87;;
19812;SDS011;10066;48.108;11.448;2023-09-30T11:36:30;10.77;;;5.00;;
19812;SDS011;10066;48.108;11.448;2023-09-30T11:38:58;8.87;;;4.40;;
19812;SDS011;10066;48.108;11.448;2023-09-30T11:41:32;9.63;;;4.70;;
19812;SDS011;10066;48.108;11.448;2023-09-30T11:44:01;9.37;;;4.50;;
19812;SDS011;10066;48.108;11.448;2023-09-30T11:46:33;12.63;;;5.70;;
19812;SDS011;10066;48.108;11.448;2023-09-30T11:49:25;14.10;;;6.97;;
19812;SDS011;10066;48.108;11.448;2023-09-30T11:51:53;16.07;;;7.13;;
19812;SDS011;10066;48.108;11.448;2023-09-30T11:54:20;16.17;;;8.00;;
19812;SDS011;10066;48.108;11.448;2023-09-30T11:56:48;15.70;;;6.97;;
19812;SDS011;10066;48.108;11.448;2023-09-30T11:59:15;14.07;;;6.77;;
19812;SDS011;10066;48.108;11.448;2023-09-30T12:01:44;12.33;;;6.30;;
19812;SDS011;10066;48.108;11.448;2023-09-30T12:04:13;12.67;;;6.10;;
19812;SDS011;10066;48.108;11.448;2023-09-30T12:06:44;16.20;;;6.27;;
19812;SDS011;10066;48.108;11.448;2023-09-30T12:09:11;14.63;;;6.13;;
19812;SDS011;10066;48.108;11.448;2023-09-30T12:11:39;11.17;;;5.80;;
19812;SDS011;10066;48.108;11.448;2023-09-30T12:14:09;14.27;;;5.70;;
19812;SDS011;10066;48.108;11.448;2023-09-30T12:16:37;9.20;;;4.40;;
19812;SDS011;10066;48.108;11.448;2023-09-30T12:19:04;15.47;;;5.63;;
19812;SDS011;10066;48.108;11.448;2023-09-30T12:21:32;11.90;;;5.57;;
19812;SDS011;10066;48.108;11.448;2023-09-30T12:24:00;12.13;;;5.87;;
19812;SDS011;10066;48.108;11.448;2023-09-30T12:26:28;11.90;;;5.30;;
19812;SDS011;10066;48.108;11.448;2023-09-30T12:28:55;13.63;;;5.30;;
19812;SDS011;10066;48.108;11.448;2023-09-30T12:31:23;14.03;;;6.40;;
19812;SDS011;10066;48.108;11.448;2023-09-30T12:33:50;13.00;;;6.20;;
19812;SDS011;10066;48.108;11.448;2023-09-30T12:36:19;14.10;;;6.80;;
19812;SDS011;10066;48.108;11.448;2023-09-30T12:38:48;16.07;;;6.63;;
19812;SDS011;10066;48.108;11.448;2023-09-30T12:41:16;14.03;;;6.60;;
19812;SDS011;10066;48.108;11.448;2023-09-30T12:43:44;13.97;;;6.30;;
19812;SDS011;10066;48.108;11.448;2023-09-30T12:46:11;13.77;;;6.67;;
19812;SDS011;10066;48.108;11.448;2023-09-30T12:48:39;11.63;;;5.80;;
19812;SDS011;10066;48.108;11.448;2023-09-30T12:51:06;15.27;;;6.60;;
19812;SDS011;10066;48.108;11.448;2023-09-30T12:53:35;14.70;;;7.07;;
19812;SDS011;10066;48.108;11.448;2023-09-30T12:56:02;14.80;;;6.97;;
19812;SDS011;10066;48.108;11.448;2023-09-30T12:58:31;16.73;;;7.37;;
19812;SDS011;10066;48.108;11.448;2023-09-30T13:00:58;16.70;;;7.23;;
19812;SDS011;10066;48.108;11.448;2023-09-30T13:03:25;17.00;;;7.53;;
19812;SDS011;10066;48.108;11.448;2023-09-30T13:05:52;14.67;;;6.57;;
19812;SDS011;10066;48.108;11.448;2023-09-30T13:08:19;16.17;;;7.33;;
19812;SDS011;10066;48.108;11.448;2023-09-30T13:10:46;16.77;;;7.67;;
19812;SDS011;10066;48.108;11.448;2023-09-30T13:13:15;13.87;;;6.20;;
19812;SDS011;10066;48.108;11.448;2023-09-30T13:15:44;15.83;;;6.90;;
19812;SDS011;10066;48.108;11.448;2023-09-30T13:18:11;18.20;;;8.00;;
19812;SDS011;10066;48.108;11.448;2023-09-30T13:20:38;15.70;;;7.47;;
19812;SDS011;10066;48.108;11.448;2023-09-30T13:23:05;15.13;;;6.83;;
19812;SDS011;10066;48.108;11.448;2023-09-30T13:25:32;16.00;;;7.20;;
19812;SDS011;10066;48.108;11.448;2023-09-30T13:27:59;13.20;;;6.70;;
19812;SDS011;10066;48.108;11.448;2023-09-30T13:30:26;14.50;;;6.50;;
19812;SDS011;10066;48.108;11.448;2023-09-30T13:32:55;15.03;;;6.43;;
19812;SDS011;10066;48.108;11.448;2023-09-30T13:35:22;13.77;;;6.40;;
19812;SDS011;10066;48.108;11.448;2023-09-30T13:37:50;12.33;;;6.50;;
19812;SDS011;10066;48.108;11.448;2023-09-30T13:40:17;11.87;;;6.10;;
19812;SDS011;10066;48.108;11.448;2023-09-30T13:42:44;10.73;;;5.27;;
19812;SDS011;10066;48.108;11.448;2023-09-30T13:45:12;14.90;;;7.03;;
19812;SDS011;10066;48.108;11.448;2023-09-30T13:47:42;14.87;;;6.67;;
19812;SDS011;10066;48.108;11.448;2023-09-30T13:50:10;11.30;;;6.00;;
19812;SDS011;10066;48.108;11.448;2023-09-30T13:52:37;13.67;;;5.97;;
19812;SDS011;10066;48.108;11.448;2023-09-30T13:55:04;14.63;;;6.13;;
19812;SDS011;10066;48.108;11.448;2023-09-30T13:57:31;14.17;;;6.73;;
19812;SDS011;10066;48.108;11.448;2023-09-30T14:00:00;13.87;;;6.20;;
19812;SDS011;10066;48.108;11.448;2023-09-30T14:02:28;13.90;;;6.77;;
19812;SDS011;10066;48.108;11.448;2023-09-30T14:04:55;15.07;;;6.00;;
19812;SDS011;10066;48.108;11.448;2023-09-30T14:07:23;13.77;;;6.07;;
19812;SDS011;10066;48.108;11.448;2023-09-30T14:09:51;12.97;;;6.20;;
19812;SDS011;10066;48.108;11.448;2023-09-30T14:12:19;15.33;;;6.43;;
19812;SDS011;10066;48.108;11.448;2023-09-30T14:14:45;12.10;;;5.77;;
19812;SDS011;10066;48.108;11.448;2023-09-30T14:17:13;15.00;;;6.47;;
19812;SDS011;10066;48.108;11.448;2023-09-30T14:19:40;14.43;;;6.63;;
19812;SDS011;10066;48.108;11.448;2023-09-30T14:22:07;11.43;;;6.00;;
19812;SDS011;10066;48.108;11.448;2023-09-30T14:24:35;15.17;;;6.67;;
19812;SDS011;10066;48.108;11.448;2023-09-30T14:27:02;15.17;;;6.37;;
19812;SDS011;10066;48.108;11.448;2023-09-30T14:29:30;15.20;;;6.57;;
19812;SDS011;10066;48.108;11.448;2023-09-30T14:31:57;11.73;;;5.87;;
19812;SDS011;10066;48.108;11.448;2023-09-30T14:34:24;12.43;;;5.87;;
19812;SDS011;10066;48.108;11.448;2023-09-30T14:36:52;16.07;;;6.77;;
19812;SDS011;10066;48.108;11.448;2023-09-30T14:39:19;15.10;;;6.40;;
19812;SDS011;10066;48.108;11.448;2023-09-30T14:41:48;14.83;;;6.53;;